createdAt,value
2019-02-15T00:01:31.114Z,33.63
2019-02-15T00:04:00.719Z,29.43
2019-02-15T00:06:30.252Z,30.97
2019-02-15T00:08:59.816Z,29.63
2019-02-15T00:11:29.306Z,27.00
2019-02-15T00:13:58.760Z,29.97
2019-02-15T00:16:28.535Z,27.80
2019-02-15T00:19:09.931Z,30.63
2019-02-15T00:21:45.371Z,32.40
2019-02-15T00:24:15.157Z,29.30
2019-02-15T00:26:45.348Z,29.27
2019-02-15T00:29:14.977Z,29.30
2019-02-15T00:31:44.731Z,29.57
2019-02-15T00:34:15.214Z,30.63
2019-02-15T00:36:44.702Z,27.37
2019-02-15T00:39:14.259Z,30.43
2019-02-15T00:41:43.784Z,26.83
2019-02-15T00:44:13.254Z,32.63
2019-02-15T00:47:20.061Z,30.07
2019-02-15T00:50:07.971Z,26.43
2019-02-15T00:52:47.082Z,26.93
2019-02-15T00:55:34.289Z,29.33
2019-02-15T00:58:31.844Z,25.90
2019-02-15T01:01:17.896Z,28.90
2019-02-15T01:03:58.871Z,24.87
2019-02-15T01:06:40.604Z,25.97
2019-02-15T01:09:47.848Z,24.67
2019-02-15T01:12:21.128Z,24.97
2019-02-15T01:14:50.630Z,29.10
2019-02-15T01:17:20.117Z,30.53
2019-02-15T01:19:49.928Z,30.10
2019-02-15T01:22:19.696Z,27.03
2019-02-15T01:24:49.401Z,28.53
2019-02-15T01:27:25.001Z,22.60
2019-02-15T01:30:02.879Z,27.13
2019-02-15T01:32:39.780Z,27.47
2019-02-15T01:35:43.655Z,26.20
2019-02-15T01:38:32.308Z,27.13
2019-02-15T01:41:36.251Z,24.43
2019-02-15T01:44:18.949Z,24.13
2019-02-15T01:46:57.045Z,25.93
2019-02-15T01:49:26.583Z,24.13
2019-02-15T01:51:56.088Z,27.30
2019-02-15T01:54:25.644Z,23.77
2019-02-15T01:56:55.099Z,25.23
2019-02-15T01:59:24.851Z,26.97
2019-02-15T02:01:54.524Z,24.33
2019-02-15T02:04:24.063Z,27.90
2019-02-15T02:06:53.567Z,26.30
2019-02-15T02:09:23.845Z,26.07
2019-02-15T02:11:53.282Z,24.57
2019-02-15T02:14:22.789Z,25.97
2019-02-15T02:16:52.311Z,27.97
2019-02-15T02:19:21.800Z,26.37
2019-02-15T02:21:51.288Z,23.43
2019-02-15T02:24:20.860Z,32.10
2019-02-15T02:26:50.351Z,30.63
2019-02-15T02:29:19.872Z,29.33
2019-02-15T02:31:49.397Z,27.50
2019-02-15T02:34:18.870Z,27.67
2019-02-15T02:36:52.871Z,25.87
2019-02-15T02:39:22.590Z,24.90
2019-02-15T02:41:52.073Z,27.43
2019-02-15T02:44:21.514Z,25.13
2019-02-15T02:46:50.975Z,22.80
2019-02-15T02:49:20.451Z,23.83
2019-02-15T02:51:50.011Z,25.80
2019-02-15T02:54:19.489Z,31.97
2019-02-15T02:56:48.990Z,23.83
2019-02-15T02:59:18.455Z,26.70
2019-02-15T03:01:48.179Z,27.03
2019-02-15T03:04:17.739Z,25.90
2019-02-15T03:06:47.220Z,28.27
2019-02-15T03:09:16.755Z,27.20
2019-02-15T03:11:47.501Z,25.23
2019-02-15T03:14:17.046Z,24.83
2019-02-15T03:16:46.771Z,27.57
2019-02-15T03:19:16.239Z,27.67
2019-02-15T03:21:46.009Z,23.40
2019-02-15T03:24:15.547Z,29.37
2019-02-15T03:26:45.019Z,26.33
2019-02-15T03:29:14.476Z,23.37
2019-02-15T03:31:43.995Z,25.03
2019-02-15T03:34:13.477Z,28.90
2019-02-15T03:36:53.527Z,26.13
2019-02-15T03:39:44.820Z,29.37
2019-02-15T03:42:15.000Z,25.10
2019-02-15T03:44:44.745Z,26.13
2019-02-15T03:47:20.442Z,28.93
2019-02-15T03:49:49.906Z,29.80
2019-02-15T03:52:19.379Z,28.27
2019-02-15T03:54:49.090Z,26.10
2019-02-15T03:57:18.783Z,29.83
2019-02-15T03:59:48.279Z,30.63
2019-02-15T04:02:17.751Z,32.03
2019-02-15T04:04:47.217Z,31.00
2019-02-15T04:07:16.664Z,32.10
2019-02-15T04:09:46.117Z,29.40
2019-02-15T04:12:15.664Z,24.93
2019-02-15T04:14:45.417Z,28.10
2019-02-15T04:17:14.922Z,28.20
2019-02-15T04:19:44.373Z,25.73
2019-02-15T04:22:13.841Z,26.90
2019-02-15T04:24:43.344Z,29.27
2019-02-15T04:27:12.820Z,28.80
2019-02-15T04:29:42.564Z,28.93
2019-02-15T04:32:12.101Z,29.60
2019-02-15T04:34:41.780Z,29.07
2019-02-15T04:37:11.263Z,26.60
2019-02-15T04:39:40.706Z,28.77
2019-02-15T04:42:10.396Z,28.47
2019-02-15T04:44:42.774Z,29.27
2019-02-15T04:47:11.384Z,28.33
2019-02-15T04:49:41.198Z,24.37
2019-02-15T04:52:10.759Z,25.87
2019-02-15T04:54:40.207Z,25.00
2019-02-15T04:57:09.677Z,25.43
2019-02-15T04:59:39.388Z,24.20
2019-02-15T05:02:08.945Z,26.03
2019-02-15T05:04:38.386Z,25.67
2019-02-15T05:07:07.861Z,27.70
2019-02-15T05:09:37.631Z,28.73
2019-02-15T05:12:07.140Z,28.03
2019-02-15T05:14:36.658Z,26.03
2019-02-15T05:17:06.136Z,27.60
2019-02-15T05:19:35.690Z,31.93
2019-02-15T05:22:05.140Z,38.03
2019-02-15T05:24:34.673Z,30.40
2019-02-15T05:27:05.271Z,30.37
2019-02-15T05:29:34.740Z,28.97
2019-02-15T05:32:04.256Z,35.10
2019-02-15T05:34:33.759Z,32.20
2019-02-15T05:37:03.243Z,35.50
2019-02-15T05:39:33.148Z,37.37
2019-02-15T05:42:02.886Z,34.13
2019-02-15T05:44:32.652Z,31.83
2019-02-15T05:47:02.149Z,39.90
2019-02-15T05:49:32.278Z,31.70
2019-02-15T05:52:01.823Z,28.57
2019-02-15T05:54:31.278Z,28.40
2019-02-15T05:57:00.750Z,27.30
2019-02-15T05:59:30.490Z,29.77
2019-02-15T06:02:00.258Z,35.03
2019-02-15T06:04:29.804Z,40.13
2019-02-15T06:06:59.342Z,37.27
2019-02-15T06:09:29.245Z,36.67
2019-02-15T06:11:59.063Z,38.23
2019-02-15T06:14:28.588Z,39.10
2019-02-15T06:16:58.299Z,37.13
2019-02-15T06:19:27.787Z,38.73
2019-02-15T06:21:57.549Z,39.10
2019-02-15T06:24:27.169Z,41.77
2019-02-15T06:26:56.917Z,43.30
2019-02-15T06:29:26.448Z,36.50
2019-02-15T06:31:55.892Z,44.87
2019-02-15T06:34:25.678Z,42.07
2019-02-15T06:36:55.275Z,42.60
2019-02-15T06:39:25.317Z,34.57
2019-02-15T06:41:54.923Z,37.43
2019-02-15T06:44:24.484Z,35.60
2019-02-15T06:46:54.182Z,38.20
2019-02-15T06:49:23.888Z,40.53
2019-02-15T06:51:53.730Z,46.20
2019-02-15T06:54:24.196Z,34.17
2019-02-15T06:56:53.733Z,37.80
2019-02-15T06:59:48.424Z,38.10
2019-02-15T07:02:42.952Z,38.97
2019-02-15T07:05:22.722Z,49.10
2019-02-15T07:07:52.307Z,42.00
2019-02-15T07:10:21.952Z,47.20
2019-02-15T07:12:51.559Z,50.83
2019-02-15T07:15:21.109Z,50.33
2019-02-15T07:17:50.702Z,43.40
2019-02-15T07:20:20.276Z,44.20
2019-02-15T07:22:50.881Z,52.07
2019-02-15T07:25:20.451Z,65.37
2019-02-15T07:27:50.273Z,41.87
2019-02-15T07:30:19.855Z,42.70
2019-02-15T07:32:49.403Z,52.53
2019-02-15T07:35:19.007Z,45.13
2019-02-15T07:37:49.209Z,48.73
2019-02-15T07:40:18.781Z,53.37
2019-02-15T07:42:48.288Z,57.70
2019-02-15T07:45:18.077Z,55.17
2019-02-15T07:47:47.775Z,52.00
2019-02-15T07:50:17.469Z,53.33
2019-02-15T07:52:47.212Z,61.60
2019-02-15T07:55:16.837Z,45.40
2019-02-15T07:57:46.466Z,58.63
2019-02-15T08:00:17.244Z,28.77
2019-02-15T08:02:46.945Z,46.23
2019-02-15T08:05:16.740Z,35.53
2019-02-15T08:07:46.304Z,56.37
2019-02-15T08:10:17.078Z,41.90
2019-02-15T08:12:46.615Z,22.13
2019-02-15T08:15:16.188Z,24.73
2019-02-15T08:17:45.735Z,21.17
2019-02-15T08:20:15.246Z,22.10
2019-02-15T08:22:45.013Z,19.23
2019-02-15T08:25:14.761Z,18.77
2019-02-15T08:27:44.416Z,16.43
2019-02-15T08:30:13.890Z,17.53
2019-02-15T08:32:43.635Z,16.90
2019-02-15T08:35:13.177Z,18.87
2019-02-15T08:37:42.647Z,16.10
2019-02-15T08:40:12.133Z,13.90
2019-02-15T08:42:41.710Z,16.97
2019-02-15T08:45:12.022Z,17.20
2019-02-15T08:47:42.970Z,19.13
2019-02-15T08:50:12.511Z,16.40
2019-02-15T08:52:41.975Z,17.73
2019-02-15T08:55:12.539Z,19.37
2019-02-15T08:57:42.225Z,17.47
2019-02-15T09:00:11.937Z,17.17
2019-02-15T09:02:41.590Z,14.90
2019-02-15T09:05:11.861Z,14.70
2019-02-15T09:07:41.416Z,15.60
2019-02-15T09:10:11.625Z,19.43
2019-02-15T09:12:41.764Z,15.53
2019-02-15T09:15:14.562Z,15.10
2019-02-15T09:17:44.365Z,15.93
2019-02-15T09:20:14.302Z,17.30
2019-02-15T09:22:44.564Z,16.70
2019-02-15T09:25:14.801Z,13.87
2019-02-15T09:28:15.560Z,14.53
2019-02-15T09:30:50.703Z,16.73
2019-02-15T09:33:20.427Z,14.33
2019-02-15T09:35:50.651Z,15.47
2019-02-15T09:38:20.454Z,15.37
2019-02-15T09:40:50.134Z,15.20
2019-02-15T09:43:19.991Z,15.40
2019-02-15T09:45:49.894Z,17.05
2019-02-15T09:48:19.706Z,16.10
2019-02-15T09:50:49.655Z,14.45
2019-02-15T09:53:20.288Z,16.52
2019-02-15T09:55:51.205Z,14.80
2019-02-15T09:58:23.001Z,15.28
2019-02-15T10:00:53.057Z,13.40
2019-02-15T10:03:23.042Z,13.68
2019-02-15T10:05:53.048Z,16.45
2019-02-15T10:08:31.284Z,15.85
2019-02-15T10:11:12.523Z,17.90
2019-02-15T10:13:43.796Z,16.35
2019-02-15T10:16:14.473Z,17.70
2019-02-15T10:18:45.240Z,16.50
2019-02-15T10:21:16.265Z,15.85
2019-02-15T10:23:46.215Z,16.70
2019-02-15T10:26:16.321Z,18.17
2019-02-15T10:28:50.967Z,16.77
2019-02-15T10:31:22.719Z,17.73
2019-02-15T10:33:53.178Z,17.50
2019-02-15T10:36:23.380Z,18.62
2019-02-15T10:38:53.537Z,19.15
2019-02-15T10:41:26.571Z,17.55
2019-02-15T10:44:02.819Z,16.30
2019-02-15T10:46:37.911Z,19.30
2019-02-15T10:49:06.801Z,16.32
2019-02-15T10:51:37.049Z,17.73
2019-02-15T10:54:07.735Z,17.92
2019-02-15T10:56:38.048Z,17.02
2019-02-15T10:59:08.203Z,18.17
2019-02-15T11:01:39.350Z,19.48
2019-02-15T11:04:09.632Z,20.00
2019-02-15T11:06:39.933Z,22.95
2019-02-15T11:09:13.053Z,18.50
2019-02-15T11:11:43.402Z,20.50
2019-02-15T11:14:13.466Z,16.10
2019-02-15T11:16:47.266Z,14.28
2019-02-15T11:19:16.041Z,15.15
2019-02-15T11:21:54.966Z,15.03
2019-02-15T11:24:25.045Z,14.63
2019-02-15T11:26:55.182Z,15.38
2019-02-15T11:29:25.483Z,14.63
2019-02-15T11:31:55.528Z,17.73
2019-02-15T11:34:25.576Z,14.45
2019-02-15T11:36:55.836Z,16.65
2019-02-15T11:39:25.905Z,20.35
2019-02-15T11:41:56.108Z,14.18
2019-02-15T11:44:26.173Z,13.95
2019-02-15T11:46:56.951Z,12.68
2019-02-15T11:49:27.612Z,15.15
2019-02-15T11:51:59.223Z,16.85
2019-02-15T11:57:48.357Z,13.38
2019-02-15T12:00:23.181Z,12.70
2019-02-15T12:02:54.194Z,10.53
2019-02-15T12:05:24.235Z,10.08
2019-02-15T12:07:54.863Z,10.78
2019-02-15T12:10:24.798Z,11.80
2019-02-15T12:12:54.858Z,12.35
2019-02-15T12:15:25.259Z,37.95
2019-02-15T12:17:55.264Z,9.50
2019-02-15T12:20:25.402Z,8.33
2019-02-15T12:22:55.307Z,8.40
2019-02-15T12:25:25.724Z,9.48
2019-02-15T12:27:55.655Z,9.65
2019-02-15T12:30:26.029Z,13.08
2019-02-15T12:32:56.306Z,9.00
2019-02-15T12:35:26.141Z,8.40
2019-02-15T12:37:59.427Z,8.45
2019-02-15T12:40:29.291Z,8.25
2019-02-15T12:42:59.204Z,10.45
2019-02-15T12:45:31.084Z,8.30
2019-02-15T12:48:01.016Z,10.53
2019-02-15T12:50:37.095Z,10.25
2019-02-15T12:53:07.120Z,10.98
2019-02-15T12:55:37.242Z,10.90
2019-02-15T12:58:07.138Z,9.70
2019-02-15T13:00:37.023Z,9.65
2019-02-15T13:03:07.938Z,9.28
2019-02-15T13:05:38.016Z,9.88
2019-02-15T13:08:07.878Z,11.08
2019-02-15T13:10:40.015Z,13.35
2019-02-15T13:13:10.131Z,11.03
2019-02-15T13:15:40.218Z,10.38
2019-02-15T13:18:10.054Z,9.85
2019-02-15T13:20:41.607Z,9.15
2019-02-15T13:23:12.545Z,11.38
2019-02-15T13:25:42.447Z,9.33
2019-02-15T13:28:12.928Z,11.35
2019-02-15T13:30:42.810Z,10.85
2019-02-15T13:33:12.853Z,13.72
2019-02-15T13:35:43.223Z,9.30
2019-02-15T13:38:13.009Z,10.75
2019-02-15T13:40:43.030Z,9.23
2019-02-15T13:43:12.957Z,12.35
2019-02-15T13:45:42.813Z,10.95
2019-02-15T13:48:12.754Z,9.98
2019-02-15T13:50:42.691Z,10.82
2019-02-15T13:53:12.737Z,16.00
2019-02-15T13:55:44.323Z,17.17
2019-02-15T13:58:14.142Z,14.30
2019-02-15T14:00:44.594Z,11.80
2019-02-15T14:03:14.394Z,13.72
2019-02-15T14:05:45.622Z,10.50
2019-02-15T14:08:17.799Z,9.75
2019-02-15T14:10:47.654Z,12.98
2019-02-15T14:13:17.872Z,11.55
2019-02-15T14:15:47.751Z,17.82
2019-02-15T14:18:17.385Z,13.78
2019-02-15T14:20:47.025Z,12.15
2019-02-15T14:23:16.636Z,13.90
2019-02-15T14:25:46.225Z,18.00
2019-02-15T14:28:16.128Z,12.15
2019-02-15T14:30:45.873Z,12.98
2019-02-15T14:33:15.673Z,16.75
2019-02-15T14:35:45.430Z,18.52
2019-02-15T14:38:15.482Z,16.90
2019-02-15T14:40:46.317Z,15.63
2019-02-15T14:43:16.003Z,15.10
2019-02-15T14:45:45.674Z,16.60
2019-02-15T14:48:16.353Z,17.90
2019-02-15T14:50:49.334Z,15.77
2019-02-15T14:53:19.138Z,15.60
2019-02-15T14:55:49.170Z,15.40
2019-02-15T14:58:19.482Z,22.47
2019-02-15T15:00:50.398Z,17.00
2019-02-15T15:03:20.108Z,11.73
2019-02-15T15:05:50.962Z,14.43
2019-02-15T15:08:20.773Z,13.43
2019-02-15T15:10:50.596Z,12.60
2019-02-15T15:13:20.375Z,14.90
2019-02-15T15:15:50.597Z,15.10
2019-02-15T15:18:20.584Z,13.67
2019-02-15T15:20:50.356Z,12.00
2019-02-15T15:23:20.115Z,15.20
2019-02-15T15:25:51.935Z,15.90
2019-02-15T15:28:21.928Z,13.68
2019-02-15T15:30:51.761Z,13.67
2019-02-15T15:33:21.561Z,16.10
2019-02-15T15:35:51.275Z,22.73
2019-02-15T15:38:21.105Z,20.12
2019-02-15T15:40:50.928Z,11.70
2019-02-15T15:43:20.851Z,32.50
2019-02-15T15:45:51.034Z,20.67
2019-02-15T15:48:22.917Z,14.80
2019-02-15T15:50:53.001Z,20.33
2019-02-15T15:53:22.740Z,13.50
2019-02-15T15:55:52.706Z,16.83
2019-02-15T15:58:22.705Z,20.77
2019-02-15T16:00:52.627Z,17.43
2019-02-15T16:03:22.564Z,25.30
2019-02-15T16:05:52.576Z,13.87
2019-02-15T16:08:22.448Z,18.77
2019-02-15T16:10:57.702Z,16.30
2019-02-15T16:13:27.556Z,24.77
2019-02-15T16:15:58.014Z,20.90
2019-02-15T16:18:34.599Z,24.40
2019-02-15T16:20:59.429Z,35.23
2019-02-15T16:23:29.546Z,41.47
2019-02-15T16:26:02.444Z,43.57
2019-02-15T16:28:32.517Z,29.67
2019-02-15T16:31:02.385Z,27.83
2019-02-15T16:33:32.378Z,28.70
2019-02-15T16:36:05.648Z,38.27
2019-02-15T16:38:40.083Z,33.50
2019-02-15T16:41:09.654Z,21.53
2019-02-15T16:43:40.466Z,25.53
2019-02-15T16:46:10.265Z,24.07
2019-02-15T16:48:42.170Z,27.87
2019-02-15T16:51:11.440Z,28.13
2019-02-15T16:53:41.110Z,25.07
2019-02-15T16:56:10.867Z,18.77
2019-02-15T16:58:40.716Z,19.57
2019-02-15T17:01:10.432Z,31.03
2019-02-15T17:03:40.219Z,18.00
2019-02-15T17:06:17.562Z,21.60
2019-02-15T17:08:50.795Z,21.03
2019-02-15T17:11:20.511Z,23.97
2019-02-15T17:16:47.080Z,21.83
2019-02-15T17:19:30.720Z,24.00
2019-02-15T17:22:29.207Z,22.50
2019-02-15T17:25:22.023Z,23.40
2019-02-15T17:27:51.819Z,19.00
2019-02-15T17:30:31.931Z,18.33
2019-02-15T17:33:09.023Z,18.10
2019-02-15T17:35:38.881Z,17.27
2019-02-15T17:38:08.492Z,17.07
2019-02-15T17:40:38.095Z,20.10
2019-02-15T17:43:07.759Z,25.73
2019-02-15T17:45:41.774Z,22.93
2019-02-15T17:48:11.510Z,18.60
2019-02-15T17:50:41.304Z,23.00
2019-02-15T17:53:11.047Z,18.03
2019-02-15T17:55:43.494Z,19.47
2019-02-15T17:58:15.559Z,19.30
2019-02-15T18:00:48.099Z,20.70
2019-02-15T18:03:17.836Z,27.00
2019-02-15T18:05:47.664Z,16.77
2019-02-15T18:08:18.593Z,22.73
2019-02-15T18:10:59.734Z,16.77
2019-02-15T18:13:34.119Z,20.87
2019-02-15T18:19:10.308Z,20.00
2019-02-15T18:21:42.715Z,19.60
2019-02-15T18:24:15.571Z,25.17
2019-02-15T18:26:45.647Z,22.57
2019-02-15T18:29:15.201Z,19.37
2019-02-15T18:31:45.810Z,24.43
2019-02-15T18:34:15.543Z,20.50
2019-02-15T18:36:52.850Z,22.40
2019-02-15T18:39:22.622Z,25.30
2019-02-15T18:41:52.292Z,21.17
2019-02-15T18:44:24.309Z,27.30
2019-02-15T18:46:56.895Z,21.97
2019-02-15T18:49:26.566Z,31.17
2019-02-15T18:51:57.996Z,27.53
2019-02-15T18:54:27.768Z,30.20
2019-02-15T18:56:58.662Z,31.40
2019-02-15T18:59:31.098Z,29.50
2019-02-15T19:02:00.680Z,31.67
2019-02-15T19:04:31.435Z,30.23
2019-02-15T19:07:06.913Z,29.13
2019-02-15T19:09:39.016Z,33.93
2019-02-15T19:12:08.729Z,33.10
2019-02-15T19:14:38.435Z,35.33
2019-02-15T19:17:08.157Z,32.43
2019-02-15T19:19:38.199Z,33.90
2019-02-15T19:22:07.853Z,35.93
2019-02-15T19:24:37.818Z,34.63
2019-02-15T19:27:11.711Z,34.77
2019-02-15T19:29:41.501Z,37.00
2019-02-15T19:32:15.509Z,34.97
2019-02-15T19:34:48.112Z,35.90
2019-02-15T19:37:24.681Z,34.27
2019-02-15T19:39:54.529Z,28.73
2019-02-15T19:42:24.497Z,33.33
2019-02-15T19:44:54.272Z,26.27
2019-02-15T19:47:29.637Z,32.27
2019-02-15T19:50:00.614Z,28.03
2019-02-15T19:52:31.019Z,38.73
2019-02-15T19:55:00.711Z,31.70
2019-02-15T19:57:30.499Z,32.33
2019-02-15T20:00:00.351Z,31.67
2019-02-15T20:02:32.170Z,32.17
2019-02-15T20:05:03.772Z,36.83
2019-02-15T20:07:33.780Z,29.93
2019-02-15T20:10:03.456Z,30.93
2019-02-15T20:12:33.249Z,28.27
2019-02-15T20:15:03.225Z,26.23
2019-02-15T20:17:34.323Z,26.13
2019-02-15T20:20:04.179Z,36.13
2019-02-15T20:22:34.333Z,25.60
2019-02-15T20:25:04.273Z,27.23
2019-02-15T20:27:34.117Z,28.07
2019-02-15T20:30:04.159Z,30.53
2019-02-15T20:32:48.078Z,30.10
2019-02-15T20:35:19.979Z,28.13
2019-02-15T20:37:49.878Z,33.03
2019-02-15T20:40:19.621Z,37.67
2019-02-15T20:42:50.161Z,34.20
2019-02-15T20:45:20.947Z,32.33
2019-02-15T20:47:50.833Z,34.70
2019-02-15T20:50:20.634Z,31.93
2019-02-15T20:52:50.544Z,28.20
2019-02-15T20:55:20.477Z,34.00
2019-02-15T20:57:50.292Z,29.07
2019-02-15T21:00:23.614Z,28.00
2019-02-15T21:02:53.410Z,32.40
2019-02-15T21:05:23.108Z,31.03
2019-02-15T21:07:52.851Z,30.47
2019-02-15T21:10:22.619Z,29.80
2019-02-15T21:12:52.289Z,33.30
2019-02-15T21:15:24.195Z,34.50
2019-02-15T21:17:53.731Z,31.30
2019-02-15T21:20:24.649Z,30.80
2019-02-15T21:22:54.352Z,34.17
2019-02-15T21:25:24.058Z,33.43
2019-02-15T21:27:53.670Z,35.37
2019-02-15T21:30:23.441Z,35.50
2019-02-15T21:32:53.306Z,37.10
2019-02-15T21:35:22.926Z,42.00
2019-02-15T21:37:52.649Z,36.70
2019-02-15T21:40:22.267Z,39.23
2019-02-15T21:42:52.292Z,39.07
2019-02-15T21:45:21.880Z,40.47
2019-02-15T21:47:51.934Z,38.30
2019-02-15T21:50:21.543Z,40.57
2019-02-15T21:52:51.521Z,40.17
2019-02-15T21:55:21.033Z,36.27
2019-02-15T21:57:50.598Z,36.03
2019-02-15T22:00:20.163Z,43.03
2019-02-15T22:02:49.857Z,39.20
2019-02-15T22:05:19.495Z,49.53
2019-02-15T22:07:50.753Z,51.77
2019-02-15T22:10:20.763Z,52.33
2019-02-15T22:12:50.865Z,49.07
2019-02-15T22:15:20.434Z,48.90
2019-02-15T22:17:50.076Z,49.63
2019-02-15T22:20:26.303Z,47.70
2019-02-15T22:22:51.017Z,50.87
2019-02-15T22:25:20.569Z,47.30
2019-02-15T22:27:50.197Z,51.20
2019-02-15T22:30:19.733Z,49.93
2019-02-15T22:32:49.331Z,55.03
2019-02-15T22:35:19.036Z,48.13
2019-02-15T22:37:48.580Z,54.00
2019-02-15T22:40:28.657Z,49.63
2019-02-15T22:43:00.444Z,56.03
2019-02-15T22:45:30.087Z,50.07
2019-02-15T22:47:59.991Z,49.83
2019-02-15T22:50:35.678Z,40.07
2019-02-15T22:53:00.824Z,41.30
2019-02-15T22:55:30.365Z,40.57
2019-02-15T22:58:00.166Z,36.77
2019-02-15T23:00:46.049Z,29.37
2019-02-15T23:03:17.432Z,44.57
2019-02-15T23:05:47.163Z,39.47
2019-02-15T23:08:16.775Z,44.30
2019-02-15T23:10:46.332Z,41.50
2019-02-15T23:13:16.802Z,52.37
2019-02-15T23:15:46.373Z,50.70
2019-02-15T23:18:16.226Z,46.37
2019-02-15T23:20:45.789Z,49.93
2019-02-15T23:23:15.304Z,53.23
2019-02-15T23:25:44.875Z,49.73
2019-02-15T23:28:14.466Z,49.47
2019-02-15T23:30:44.869Z,50.07
2019-02-15T23:33:14.420Z,40.03
2019-02-15T23:35:43.921Z,41.57
2019-02-15T23:38:14.451Z,40.57
2019-02-15T23:40:44.016Z,44.97
2019-02-15T23:43:13.632Z,47.30
2019-02-15T23:45:45.000Z,52.87
2019-02-15T23:48:14.969Z,47.87
2019-02-15T23:50:44.669Z,51.13
2019-02-15T23:53:14.228Z,46.13
2019-02-15T23:55:43.771Z,45.23
2019-02-15T23:58:13.469Z,44.40
